Redwood City, CA

4:40 PM PDT on September 17, 2014 (GMT -0700)
San Carlos | Change Station
CLOSE
Current Station
Airport
Location: San Carlos,
Elevation: 3 ft
Nearby Weather Stations

Elev 3 ft 37.51 °N, 122.25 °W | Updated 44 minutes ago

Clear
Clear
82 °F
Feels Like 82 °F
N
9
Wind Variable Wind from SW
Gusts 21 mph

Today
High -- | Low -- °F
--% Chance of Precip.
Yesterday
High -- | Low -- °F
Precip. -- in
6:52 AM 7:13 PM
Waning Crescent, 32% visible
Pressure 29.76 in
Visibility 10.0 miles
Clouds Few 15000 ft
Dew Point 48 °F
Humidity 30%
Rainfall 0.00 in
Snow Depth 0 in , 2 in , 0 in
UV 4 out of 12
Pollen 5.10 out of 12
Ozone Good
PM2.5 Moderate
Flu Activity Not available.
METAR KSQL 172256Z 23008G18KT 10SM FEW150 28/09 A2976

More Conditions Fewer Conditions

Pressure 29.76 in
Visibility 10.0 miles
Clouds Few 15000 ft
Dew Point 48 °F
Humidity 30%
Rainfall 0.00 in
Snow Depth 0 in , 2 in , 0 in
UV 4 out of 12
Pollen 5.10 out of 12
Ozone Good
PM2.5 Moderate
Flu Activity Not available.
METAR KSQL 172256Z 23008G18KT 10SM FEW150 28/09 A2976

More Conditions Fewer Conditions

10-Day Weather Forecast

Almanac

Astronomy

Sep. 17, 2014 Rise Set
Actual Time 6:52 AM PDT 7:13 PM PDT
Civil Twilight 6:26 AM PDT 7:39 PM PDT
Nautical Twilight 5:55 AM PDT 8:10 PM PDT
Astronomical Twilight 5:24 AM PDT 8:41 PM PDT
Moon 1:02 AM PDT 3:22 PM PDT
Length of Visible Light 13h 13m
Length of Day
12h 20m
Tomorrow will be 2m 24s shorter.
Waning Crescent, 32% of the Moon is Illuminated
Today
Waning Crescent
Sep 24
New
Oct 1
First Quarter
Oct 8
Full
Oct 15
Last Quarter

Today's Extremes

State Highs State Lows

Community

WunderPhotos

Upload Photos

1,754,198 photos uploaded!

Nearby

Air Quality

  Air Quality AQ Index Pollutant
Yesterday Good
PM2.5
Yesterday Good
OZONE
Current Moderate
PM2.5
Current Good
OZONE
Wednesday Good
OZONE
Thursday Good
OZONE
Friday Good
OZONE
Saturday Good
PM2.5
Sunday Good
PM2.5
Monday Good
PM2.5

Snow Depth

Station Depth Elevation
Leavitt Meadows 0 in 7200 ft
CSS Lab 2 in 6900 ft
Adin Mountain 0 in 6200 ft
Burnside Lake 0 in 8139 ft

Earthquake Activity

City Distance Mag. Time & Date
Cobb, California 92 miles 2.7 1:23 PM PDT
2014-09-16
Minimum magnitude displayed is 2.5.

Coastal Water Temperatures

Place Temperature
No Stations Reporting

Nearby Weather Stations